createdAt,value
2017-12-11T00:01:05.988Z,0.50
2017-12-11T00:03:33.447Z,1.40
2017-12-11T00:06:00.933Z,0.50
2017-12-11T00:08:28.385Z,0.50
2017-12-11T00:10:55.836Z,0.47
2017-12-11T00:13:23.252Z,0.50
2017-12-11T00:15:50.695Z,0.47
2017-12-11T00:18:18.249Z,0.80
2017-12-11T00:20:45.684Z,0.60
2017-12-11T00:23:13.150Z,0.57
2017-12-11T00:25:40.580Z,0.87
2017-12-11T00:28:08.086Z,0.50
2017-12-11T00:30:35.530Z,0.40
2017-12-11T00:33:03.012Z,0.70
2017-12-11T00:35:30.485Z,0.73
2017-12-11T00:37:57.924Z,0.27
2017-12-11T00:40:25.366Z,0.40
2017-12-11T00:42:52.818Z,0.70
2017-12-11T00:45:20.299Z,0.50
2017-12-11T00:47:47.767Z,0.47
2017-12-11T00:50:15.633Z,0.60
2017-12-11T00:52:43.109Z,0.67
2017-12-11T00:55:10.556Z,0.60
2017-12-11T00:57:37.991Z,1.40
2017-12-11T01:00:05.466Z,0.50
2017-12-11T01:02:32.884Z,1.63
2017-12-11T01:05:00.404Z,0.30
2017-12-11T01:07:27.847Z,0.40
2017-12-11T01:09:55.331Z,0.30
2017-12-11T01:12:22.792Z,0.40
2017-12-11T01:14:50.263Z,0.60
2017-12-11T01:17:17.700Z,0.40
2017-12-11T01:19:45.154Z,0.50
2017-12-11T01:22:12.586Z,0.90
2017-12-11T01:24:40.500Z,0.90
2017-12-11T01:27:07.960Z,0.60
2017-12-11T01:29:35.425Z,0.60
2017-12-11T01:32:02.872Z,0.40
2017-12-11T01:34:30.324Z,1.33
2017-12-11T01:36:57.804Z,1.87
2017-12-11T01:39:25.267Z,3.43
2017-12-11T01:41:52.697Z,0.70
2017-12-11T01:44:20.132Z,0.70
2017-12-11T01:46:47.564Z,0.50
2017-12-11T01:49:15.037Z,0.70
2017-12-11T01:51:42.473Z,1.47
2017-12-11T01:54:10.037Z,0.50
2017-12-11T01:56:37.484Z,0.70
2017-12-11T01:59:04.913Z,0.40
2017-12-11T02:01:32.471Z,0.33
2017-12-11T02:03:59.900Z,0.40
2017-12-11T02:06:27.749Z,0.70
2017-12-11T02:08:55.623Z,0.57
2017-12-11T02:11:23.452Z,0.40
2017-12-11T02:13:50.924Z,0.57
2017-12-11T02:16:18.371Z,0.40
2017-12-11T02:18:45.884Z,0.60
2017-12-11T02:21:13.352Z,0.70
2017-12-11T02:23:40.904Z,0.50
2017-12-11T02:26:08.374Z,0.73
2017-12-11T02:28:35.913Z,0.47
2017-12-11T02:31:03.354Z,0.50
2017-12-11T02:33:30.800Z,0.50
2017-12-11T02:35:58.353Z,0.50
2017-12-11T02:38:25.812Z,1.10
2017-12-11T02:40:53.236Z,0.90
2017-12-11T02:43:20.674Z,0.70
2017-12-11T02:45:48.349Z,0.90
2017-12-11T02:48:15.778Z,0.40
2017-12-11T02:50:43.216Z,0.67
2017-12-11T02:53:10.669Z,0.33
2017-12-11T02:55:38.112Z,0.50
2017-12-11T02:58:05.551Z,0.60
2017-12-11T03:00:33.121Z,0.53
2017-12-11T03:03:00.557Z,0.40
2017-12-11T03:05:28.052Z,0.50
2017-12-11T03:07:55.514Z,0.60
2017-12-11T03:10:22.956Z,1.17
2017-12-11T03:12:50.424Z,0.47
2017-12-11T03:15:17.884Z,0.50
2017-12-11T03:17:45.316Z,0.90
2017-12-11T03:20:13.224Z,0.63
2017-12-11T03:22:40.673Z,0.80
2017-12-11T03:25:08.104Z,0.40
2017-12-11T03:27:35.552Z,0.73
2017-12-11T03:30:02.997Z,0.70
2017-12-11T03:32:30.433Z,1.00
2017-12-11T03:34:57.868Z,0.40
2017-12-11T03:37:25.445Z,0.60
2017-12-11T03:39:52.880Z,0.40
2017-12-11T03:42:20.312Z,0.47
2017-12-11T03:44:47.761Z,0.50
2017-12-11T03:47:15.956Z,0.50
2017-12-11T03:49:43.388Z,0.33
2017-12-11T03:52:10.844Z,0.50
2017-12-11T03:54:38.285Z,0.93
2017-12-11T03:57:05.716Z,0.77
2017-12-11T03:59:33.417Z,0.40
2017-12-11T04:02:00.876Z,0.30
2017-12-11T04:04:28.333Z,0.30
2017-12-11T04:06:55.886Z,0.70
2017-12-11T04:09:23.316Z,0.40
2017-12-11T04:11:50.801Z,0.40
2017-12-11T04:14:18.416Z,0.40
2017-12-11T04:16:45.844Z,1.63
2017-12-11T04:19:13.277Z,0.90
2017-12-11T04:21:40.728Z,1.47
2017-12-11T04:24:08.445Z,0.90
2017-12-11T04:26:35.885Z,0.40
2017-12-11T04:29:03.356Z,0.40
2017-12-11T04:31:31.225Z,0.50
2017-12-11T04:33:58.710Z,0.93
2017-12-11T04:36:26.150Z,0.30
2017-12-11T04:38:53.584Z,1.23
2017-12-11T04:41:21.041Z,1.50
2017-12-11T04:43:48.573Z,0.97
2017-12-11T04:46:16.032Z,0.70
2017-12-11T04:48:43.464Z,1.07
2017-12-11T04:51:10.996Z,0.43
2017-12-11T04:53:38.780Z,0.70
2017-12-11T04:56:06.216Z,0.57
2017-12-11T04:58:33.686Z,0.60
2017-12-11T05:01:01.266Z,0.97
2017-12-11T05:03:29.040Z,1.30
2017-12-11T05:05:56.485Z,1.40
2017-12-11T05:08:24.183Z,1.33
2017-12-11T05:10:51.649Z,1.90
2017-12-11T05:13:19.300Z,1.47
2017-12-11T05:15:46.753Z,1.60
2017-12-11T05:18:14.254Z,1.87
2017-12-11T05:20:41.637Z,2.10
2017-12-11T05:23:09.145Z,1.70
2017-12-11T05:25:36.584Z,1.60
2017-12-11T05:28:04.042Z,2.97
2017-12-11T05:30:31.480Z,2.80
2017-12-11T05:32:58.985Z,2.17
2017-12-11T05:35:26.445Z,2.17
2017-12-11T05:37:53.916Z,2.40
2017-12-11T05:40:21.370Z,2.90
2017-12-11T05:42:48.834Z,3.40
2017-12-11T05:45:16.305Z,2.93
2017-12-11T05:47:43.773Z,3.90
2017-12-11T05:50:11.200Z,3.77
2017-12-11T05:52:38.712Z,4.07
2017-12-11T05:55:06.131Z,5.57
2017-12-11T05:57:33.565Z,4.40
2017-12-11T06:00:01.473Z,4.07
2017-12-11T06:02:28.919Z,3.37
2017-12-11T06:04:56.388Z,3.87
2017-12-11T06:07:23.856Z,4.03
2017-12-11T06:09:51.324Z,4.30
2017-12-11T06:12:18.778Z,3.70
2017-12-11T06:14:46.245Z,5.73
2017-12-11T06:17:13.700Z,4.93
2017-12-11T06:19:41.545Z,3.07
2017-12-11T06:22:09.052Z,5.83
2017-12-11T06:24:36.484Z,4.20
2017-12-11T06:27:04.085Z,4.07
2017-12-11T06:29:31.520Z,5.27
2017-12-11T06:31:58.992Z,4.17
2017-12-11T06:34:26.756Z,4.20
2017-12-11T06:36:54.215Z,4.00
2017-12-11T06:39:21.650Z,2.63
2017-12-11T06:41:49.091Z,2.70
2017-12-11T06:44:16.655Z,4.73
2017-12-11T06:46:44.092Z,3.40
2017-12-11T06:49:11.533Z,3.80
2017-12-11T06:51:38.994Z,3.70
2017-12-11T06:54:06.443Z,3.30
2017-12-11T06:56:33.991Z,3.63
2017-12-11T06:59:01.765Z,3.50
2017-12-11T07:01:29.637Z,4.90
2017-12-11T07:03:57.098Z,3.87
2017-12-11T07:06:24.562Z,2.43
2017-12-11T07:08:52.046Z,3.03
2017-12-11T07:11:19.479Z,5.83
2017-12-11T07:13:46.960Z,3.53
2017-12-11T07:16:14.414Z,4.20
2017-12-11T07:18:42.271Z,3.87
2017-12-11T07:21:09.724Z,3.03
2017-12-11T07:23:37.176Z,4.10
2017-12-11T07:26:04.616Z,3.03
2017-12-11T07:28:32.129Z,5.07
2017-12-11T07:30:59.572Z,4.07
2017-12-11T07:33:27.068Z,3.20
2017-12-11T07:35:54.595Z,3.20
2017-12-11T07:38:22.057Z,4.00
2017-12-11T07:40:49.511Z,4.30
2017-12-11T07:43:17.305Z,2.90
2017-12-11T07:45:44.769Z,3.33
2017-12-11T07:48:12.226Z,3.10
2017-12-11T07:50:39.694Z,2.50
2017-12-11T07:53:07.148Z,2.60
2017-12-11T07:55:34.613Z,2.60
2017-12-11T07:58:02.488Z,2.63
2017-12-11T08:00:29.968Z,2.63
2017-12-11T08:02:57.408Z,3.13
2017-12-11T08:05:24.856Z,2.60
2017-12-11T08:07:52.289Z,2.00
2017-12-11T08:10:19.734Z,2.17
2017-12-11T08:12:47.178Z,2.37
2017-12-11T08:15:15.540Z,3.30
2017-12-11T08:17:43.008Z,2.20
2017-12-11T08:20:10.446Z,2.37
2017-12-11T08:22:37.927Z,2.73
2017-12-11T08:25:05.370Z,1.60
2017-12-11T08:27:32.806Z,1.90
2017-12-11T08:30:00.316Z,1.60
2017-12-11T08:32:27.757Z,2.23
2017-12-11T08:34:55.212Z,3.20
2017-12-11T08:37:22.645Z,2.73
2017-12-11T08:39:50.161Z,3.73
2017-12-11T08:42:18.009Z,2.43
2017-12-11T08:44:45.502Z,2.00
2017-12-11T08:47:13.044Z,2.00
2017-12-11T08:49:40.484Z,2.60
2017-12-11T08:52:07.930Z,1.57
2017-12-11T08:54:35.404Z,1.33
2017-12-11T08:57:03.152Z,1.70
2017-12-11T08:59:30.661Z,1.97
2017-12-11T09:01:58.097Z,2.03
2017-12-11T09:04:25.541Z,1.70
2017-12-11T09:06:53.034Z,1.77
2017-12-11T09:09:20.465Z,0.70
2017-12-11T09:11:47.970Z,1.63
2017-12-11T09:14:15.440Z,1.20
2017-12-11T09:16:42.896Z,1.30
2017-12-11T09:19:10.365Z,1.03
2017-12-11T09:21:37.825Z,1.67
2017-12-11T09:24:05.275Z,1.57
2017-12-11T09:26:32.712Z,1.13
2017-12-11T09:29:00.196Z,1.00
2017-12-11T09:31:27.688Z,0.80
2017-12-11T09:33:55.577Z,1.23
2017-12-11T09:36:23.040Z,1.43
2017-12-11T09:38:50.487Z,1.00
2017-12-11T09:41:17.934Z,1.23
2017-12-11T09:43:45.403Z,1.33
2017-12-11T09:46:12.836Z,0.97
2017-12-11T09:48:40.696Z,1.20
2017-12-11T09:51:08.194Z,0.83
2017-12-11T09:53:35.637Z,1.10
2017-12-11T09:56:03.080Z,0.93
2017-12-11T09:58:30.518Z,1.00
2017-12-11T10:00:57.952Z,1.40
2017-12-11T10:03:25.397Z,0.70
2017-12-11T10:05:53.342Z,1.70
2017-12-11T10:08:20.816Z,1.13
2017-12-11T10:10:48.254Z,0.97
2017-12-11T10:13:15.726Z,1.23
2017-12-11T10:15:43.185Z,0.90
2017-12-11T10:18:10.644Z,1.63
2017-12-11T10:20:38.524Z,1.30
2017-12-11T10:23:06.006Z,1.30
2017-12-11T10:25:33.469Z,0.93
2017-12-11T10:28:01.329Z,1.07
2017-12-11T10:30:28.758Z,1.83
2017-12-11T10:32:56.654Z,1.30
2017-12-11T10:35:24.089Z,1.40
2017-12-11T10:37:51.578Z,1.60
2017-12-11T10:40:19.048Z,1.30
2017-12-11T10:42:46.894Z,1.13
2017-12-11T10:45:14.361Z,1.53
2017-12-11T10:47:41.845Z,1.73
2017-12-11T10:50:09.779Z,1.20
2017-12-11T10:52:37.501Z,2.03
2017-12-11T10:55:05.446Z,1.40
2017-12-11T10:57:32.901Z,2.23
2017-12-11T11:00:00.360Z,1.10
2017-12-11T11:02:27.816Z,1.50
2017-12-11T11:04:55.264Z,2.00
2017-12-11T11:07:22.748Z,1.83
2017-12-11T11:09:50.210Z,1.80
2017-12-11T11:12:17.741Z,1.40
2017-12-11T11:14:45.200Z,2.20
2017-12-11T11:17:12.630Z,2.13
2017-12-11T11:19:40.065Z,2.00
2017-12-11T11:22:07.508Z,1.57
2017-12-11T11:24:34.951Z,1.57
2017-12-11T11:27:02.402Z,1.20
2017-12-11T11:29:29.839Z,1.53
2017-12-11T11:31:57.269Z,1.93
2017-12-11T11:34:24.729Z,1.80
2017-12-11T11:36:52.285Z,1.80
2017-12-11T11:39:19.783Z,1.50
2017-12-11T11:41:47.221Z,1.57
2017-12-11T11:44:14.669Z,1.30
2017-12-11T11:46:42.122Z,1.70
2017-12-11T11:49:09.600Z,1.30
2017-12-11T11:51:37.065Z,1.77
2017-12-11T11:54:04.540Z,2.30
2017-12-11T11:56:32.388Z,2.00
2017-12-11T11:58:59.844Z,1.30
2017-12-11T12:01:27.318Z,1.30
2017-12-11T12:03:55.223Z,2.17
2017-12-11T12:06:23.080Z,1.30
2017-12-11T12:08:50.513Z,1.07
2017-12-11T12:11:17.966Z,1.00
2017-12-11T12:13:45.458Z,1.10
2017-12-11T12:16:12.909Z,0.53
2017-12-11T12:18:40.354Z,1.53
2017-12-11T12:21:07.776Z,0.73
2017-12-11T12:23:35.230Z,0.90
2017-12-11T12:26:02.665Z,1.30
2017-12-11T12:28:31.033Z,1.20
2017-12-11T12:30:58.501Z,0.97
2017-12-11T12:33:26.342Z,1.53
2017-12-11T12:35:53.793Z,1.40
2017-12-11T12:38:21.295Z,1.43
2017-12-11T12:40:48.749Z,1.53
2017-12-11T12:43:16.193Z,1.37
2017-12-11T12:45:43.656Z,1.30
2017-12-11T12:48:11.126Z,1.23
2017-12-11T12:50:38.595Z,1.30
2017-12-11T12:53:06.045Z,1.37
2017-12-11T12:55:33.515Z,1.03
2017-12-11T12:58:00.955Z,2.50
2017-12-11T13:00:28.444Z,0.53
2017-12-11T13:02:55.881Z,1.33
2017-12-11T13:05:23.343Z,0.80
2017-12-11T13:07:50.842Z,0.40
2017-12-11T13:10:18.292Z,0.80
2017-12-11T13:12:45.760Z,0.77
2017-12-11T13:15:13.211Z,1.00
2017-12-11T13:17:40.746Z,1.17
2017-12-11T13:20:08.507Z,0.60
2017-12-11T13:22:36.407Z,0.63
2017-12-11T13:25:03.857Z,0.90
2017-12-11T13:27:31.392Z,1.00
2017-12-11T13:29:59.189Z,0.90
2017-12-11T13:32:26.662Z,0.57
2017-12-11T13:37:19.312Z,0.70
2017-12-11T13:39:46.982Z,1.20
2017-12-11T13:42:14.433Z,0.70
2017-12-11T13:44:42.401Z,0.50
2017-12-11T13:47:09.832Z,0.80
2017-12-11T13:49:37.283Z,0.50
2017-12-11T13:52:04.729Z,0.80
2017-12-11T13:54:32.180Z,0.50
2017-12-11T13:56:59.639Z,0.50
2017-12-11T13:59:27.100Z,0.80
2017-12-11T14:01:54.556Z,0.53
2017-12-11T14:04:21.986Z,0.30
2017-12-11T14:06:49.520Z,0.60
2017-12-11T14:09:16.953Z,0.40
2017-12-11T14:11:44.392Z,0.60
2017-12-11T14:14:11.845Z,0.77
2017-12-11T14:16:39.329Z,0.60
2017-12-11T14:19:06.792Z,0.60
2017-12-11T14:21:34.240Z,0.77
2017-12-11T14:24:01.713Z,0.63
2017-12-11T14:26:29.160Z,0.83
2017-12-11T14:28:56.606Z,0.70
2017-12-11T14:31:24.102Z,0.67
2017-12-11T14:33:51.576Z,0.60
2017-12-11T14:36:19.086Z,1.10
2017-12-11T14:38:46.881Z,0.87
2017-12-11T14:41:14.323Z,1.10
2017-12-11T14:43:41.801Z,1.00
2017-12-11T14:46:09.293Z,0.63
2017-12-11T14:48:36.743Z,0.57
2017-12-11T14:51:04.222Z,1.10
2017-12-11T14:53:32.052Z,0.80
2017-12-11T14:55:59.486Z,1.47
2017-12-11T14:58:26.985Z,1.20
2017-12-11T15:00:54.520Z,1.90
2017-12-11T15:03:21.991Z,1.07
2017-12-11T15:05:49.414Z,1.80
2017-12-11T15:08:17.233Z,0.80
2017-12-11T15:10:44.718Z,0.90
2017-12-11T15:13:12.182Z,1.30
2017-12-11T15:15:39.627Z,0.80
2017-12-11T15:18:07.494Z,0.80
2017-12-11T15:20:34.988Z,0.93
2017-12-11T15:23:02.438Z,1.13
2017-12-11T15:25:29.890Z,4.03
2017-12-11T15:27:57.671Z,1.33
2017-12-11T15:30:25.118Z,1.10
2017-12-11T15:32:52.686Z,0.90
2017-12-11T15:35:20.128Z,0.90
2017-12-11T15:37:47.614Z,1.70
2017-12-11T15:40:15.085Z,1.37
2017-12-11T15:42:42.933Z,1.57
2017-12-11T15:45:10.383Z,1.70
2017-12-11T15:47:37.817Z,1.10
2017-12-11T15:50:05.326Z,1.40
2017-12-11T15:52:32.781Z,1.60
2017-12-11T15:55:00.229Z,1.67
2017-12-11T15:57:27.697Z,1.03
2017-12-11T15:59:55.181Z,2.33
2017-12-11T16:02:22.641Z,1.70
2017-12-11T16:04:50.114Z,1.40
2017-12-11T16:07:17.674Z,1.70
2017-12-11T16:09:45.105Z,2.00
2017-12-11T16:12:12.898Z,1.90
2017-12-11T16:14:40.345Z,1.20
2017-12-11T16:17:07.814Z,1.97
2017-12-11T16:19:35.260Z,1.50
2017-12-11T16:22:02.820Z,2.10
2017-12-11T16:24:30.352Z,1.90
2017-12-11T16:26:57.777Z,1.40
2017-12-11T16:29:25.513Z,1.50
2017-12-11T16:31:53.099Z,0.90
2017-12-11T16:34:20.518Z,1.97
2017-12-11T16:36:47.978Z,1.53
2017-12-11T16:39:15.420Z,1.13
2017-12-11T16:41:43.248Z,1.40
2017-12-11T16:44:10.681Z,1.23
2017-12-11T16:46:38.172Z,1.43
2017-12-11T16:49:06.033Z,1.87
2017-12-11T16:51:33.485Z,2.13
2017-12-11T16:54:00.929Z,1.50
2017-12-11T16:56:28.504Z,1.03
2017-12-11T16:58:56.279Z,1.33
2017-12-11T17:01:23.770Z,1.63
2017-12-11T17:03:51.220Z,1.47
2017-12-11T17:06:18.665Z,1.43
2017-12-11T17:08:46.102Z,1.27
2017-12-11T17:11:13.670Z,1.60
2017-12-11T17:13:41.111Z,1.70
2017-12-11T17:16:08.953Z,1.47
2017-12-11T17:18:36.400Z,1.33
2017-12-11T17:21:03.850Z,1.63
2017-12-11T17:23:31.341Z,1.60
2017-12-11T17:25:58.789Z,1.37
2017-12-11T17:28:26.240Z,1.33
2017-12-11T17:30:54.052Z,1.00
2017-12-11T17:33:21.489Z,1.63
2017-12-11T17:35:49.078Z,0.60
2017-12-11T17:38:16.523Z,1.47
2017-12-11T17:40:43.965Z,0.70
2017-12-11T17:43:11.405Z,0.70
2017-12-11T17:45:38.869Z,1.20
2017-12-11T17:48:06.318Z,0.90
2017-12-11T17:50:34.214Z,0.70
2017-12-11T17:53:01.664Z,1.20
2017-12-11T17:55:29.146Z,2.30
2017-12-11T17:57:56.593Z,2.00
2017-12-11T18:00:24.041Z,1.07
2017-12-11T18:02:51.545Z,1.10
2017-12-11T18:05:18.999Z,1.10
2017-12-11T18:07:46.547Z,0.90
2017-12-11T18:10:14.320Z,1.30
2017-12-11T18:12:41.756Z,1.57
2017-12-11T18:15:09.233Z,1.10
2017-12-11T18:17:36.870Z,1.07
2017-12-11T18:20:04.313Z,0.73
2017-12-11T18:22:31.765Z,0.70
2017-12-11T18:25:00.317Z,0.73
2017-12-11T18:27:27.785Z,0.57
2017-12-11T18:29:55.715Z,1.27
2017-12-11T18:32:23.139Z,1.10
2017-12-11T18:34:50.596Z,0.50
2017-12-11T18:37:18.416Z,0.80
2017-12-11T18:39:46.316Z,1.17
2017-12-11T18:42:13.769Z,0.50
2017-12-11T18:44:41.620Z,0.50
2017-12-11T18:47:09.085Z,0.40
2017-12-11T18:49:36.516Z,0.80
2017-12-11T18:52:03.957Z,0.60
2017-12-11T18:54:31.390Z,0.70
2017-12-11T18:56:58.840Z,0.87
2017-12-11T18:59:26.424Z,0.60
2017-12-11T19:01:53.861Z,0.77
2017-12-11T19:04:21.308Z,0.50
2017-12-11T19:06:48.780Z,0.40
2017-12-11T19:09:16.260Z,0.40
2017-12-11T19:11:43.705Z,0.90
2017-12-11T19:14:11.147Z,1.03
2017-12-11T19:16:38.636Z,0.87
2017-12-11T19:19:06.105Z,1.03
2017-12-11T19:21:33.545Z,0.93
2017-12-11T19:24:00.997Z,0.93
2017-12-11T19:26:28.486Z,0.50
2017-12-11T19:28:55.952Z,0.83
2017-12-11T19:31:23.677Z,1.07
2017-12-11T19:33:51.131Z,0.60
2017-12-11T19:36:18.587Z,0.60
2017-12-11T19:38:46.210Z,0.40
2017-12-11T19:41:13.660Z,0.60
2017-12-11T19:43:41.117Z,0.90
2017-12-11T19:46:08.981Z,1.30
2017-12-11T19:48:36.849Z,1.50
2017-12-11T19:51:04.332Z,2.30
2017-12-11T19:53:31.801Z,0.50
2017-12-11T19:55:59.308Z,0.47
2017-12-11T19:58:27.136Z,0.60
2017-12-11T20:00:54.612Z,0.57
2017-12-11T20:03:22.485Z,0.63
2017-12-11T20:05:49.936Z,1.03
2017-12-11T20:08:17.381Z,1.33
2017-12-11T20:10:44.833Z,1.30
2017-12-11T20:13:12.376Z,0.60
2017-12-11T20:15:39.797Z,0.90
2017-12-11T20:18:07.249Z,1.40
2017-12-11T20:20:34.762Z,1.20
2017-12-11T20:23:02.180Z,0.73
2017-12-11T20:25:29.632Z,0.40
2017-12-11T20:27:57.145Z,0.60
2017-12-11T20:30:24.566Z,0.43
2017-12-11T20:32:52.010Z,0.80
2017-12-11T20:35:19.442Z,0.70
2017-12-11T20:37:47.278Z,0.47
2017-12-11T20:40:14.801Z,0.70
2017-12-11T20:42:42.250Z,0.90
2017-12-11T20:45:09.692Z,0.60
2017-12-11T20:47:37.160Z,0.87
2017-12-11T20:50:04.618Z,0.40
2017-12-11T20:52:32.061Z,2.03
2017-12-11T20:54:59.589Z,0.60
2017-12-11T20:57:27.142Z,1.87
2017-12-11T20:59:54.885Z,0.73
2017-12-11T21:02:22.350Z,0.60
2017-12-11T21:04:49.792Z,0.57
2017-12-11T21:07:17.249Z,0.70
2017-12-11T21:09:44.691Z,0.80
2017-12-11T21:12:12.178Z,0.53
2017-12-11T21:14:39.651Z,0.43
2017-12-11T21:17:07.112Z,0.50
2017-12-11T21:19:34.575Z,0.30
2017-12-11T21:22:02.025Z,0.30
2017-12-11T21:24:29.453Z,0.33
2017-12-11T21:26:56.957Z,0.30
2017-12-11T21:29:24.397Z,0.30
2017-12-11T21:31:51.900Z,0.37
2017-12-11T21:34:19.457Z,0.50
2017-12-11T21:36:47.201Z,0.40
2017-12-11T21:39:14.654Z,0.50
2017-12-11T21:41:42.214Z,0.40
2017-12-11T21:44:09.660Z,0.53
2017-12-11T21:46:37.097Z,0.40
2017-12-11T21:49:04.922Z,1.27
2017-12-11T21:51:32.380Z,0.30
2017-12-11T21:53:59.825Z,0.23
2017-12-11T21:56:27.293Z,0.50
2017-12-11T21:58:54.758Z,0.40
2017-12-11T22:01:22.220Z,0.40
2017-12-11T22:03:50.097Z,0.37
2017-12-11T22:06:17.561Z,0.30
2017-12-11T22:08:45.039Z,0.30
2017-12-11T22:11:12.465Z,0.97
2017-12-11T22:13:39.981Z,0.43
2017-12-11T22:16:07.420Z,0.33
2017-12-11T22:18:34.866Z,0.40
2017-12-11T22:21:02.335Z,0.20
2017-12-11T22:23:29.785Z,0.30
2017-12-11T22:25:57.268Z,0.30
2017-12-11T22:28:24.708Z,0.40
2017-12-11T22:30:52.158Z,0.30
2017-12-11T22:33:19.626Z,0.30
2017-12-11T22:35:47.082Z,0.40
2017-12-11T22:38:14.650Z,0.30
2017-12-11T22:40:42.240Z,0.40
2017-12-11T22:43:09.706Z,0.50
2017-12-11T22:45:37.167Z,0.30
2017-12-11T22:48:05.626Z,0.60
2017-12-11T22:50:33.501Z,0.30
2017-12-11T22:53:00.965Z,0.30
2017-12-11T22:55:28.421Z,0.30
2017-12-11T22:57:55.897Z,0.80
2017-12-11T23:00:30.010Z,0.40
2017-12-11T23:02:57.460Z,0.50
2017-12-11T23:05:24.901Z,0.30
2017-12-11T23:07:52.345Z,0.50
2017-12-11T23:10:19.780Z,0.40
2017-12-11T23:12:47.534Z,0.30
2017-12-11T23:15:15.040Z,0.50
2017-12-11T23:17:42.472Z,0.30
2017-12-11T23:20:09.924Z,0.30
2017-12-11T23:22:37.372Z,0.37
2017-12-11T23:25:04.834Z,0.63
2017-12-11T23:27:32.793Z,0.40
2017-12-11T23:30:00.260Z,0.30
2017-12-11T23:32:27.716Z,0.30
2017-12-11T23:34:55.196Z,0.90
2017-12-11T23:37:22.676Z,0.30
2017-12-11T23:39:50.105Z,0.50
2017-12-11T23:42:17.974Z,0.40
2017-12-11T23:44:45.850Z,0.30
2017-12-11T23:47:13.708Z,0.40
2017-12-11T23:49:41.615Z,0.40
2017-12-11T23:52:09.068Z,0.40
2017-12-11T23:54:36.505Z,0.30
2017-12-11T23:57:03.959Z,0.30
2017-12-11T23:59:31.397Z,0.30
